Aguanish, Canada
Current Conditions -  °F | °C
As of 11:00 AM on Monday 22 Dec 2014 (Local Time) from CYNA Reporting Station
Clear Clear  
Wind Chill:   Ceiling: Unl
Heat Index: 16°   Visibility: 9mi
Dew Point: 10°   Wind: 6mph
Humidity: 79%   Direction: 50°NE
Pressure: 30.47"   Gusts: NA
Location:  50.22°N, 62.08°W
Report Text: CYNA 221500Z AUTO 05005KT 9SM CLR M09/M12 A3047 RMK SLP320
Loading
Personal Weather Stations






























Interactive Weather Map New forecast layout! Learn more

10-Day Weather Forecast

Advertisements
Track Severe Weather on mobile